Time;durP1;ratioP1;P1;durP2;ratioP2;P2;SDS_P1;SDS_P2;PMS_P1;PMS_P2;Temp;Humidity;BMP_temperature;BMP_pressure;BME280_temperature;BME280_humidity;BME280_pressure;Samples;Min_cycle;Max_cycle;Signal;HPM_P1;HPM_P2
2022/05/31 00:00:33;;;;;;;5.90;3.00;;;22.80;43.00;;;;;;4846010;29;89778;-70
2022/05/31 00:03:03;;;;;;;9.30;2.93;;;22.80;43.10;;;;;;4842952;29;91429;-71
2022/05/31 00:05:32;;;;;;;3.43;2.57;;;22.80;43.10;;;;;;4846939;29;88419;-71
2022/05/31 00:08:00;;;;;;;4.03;2.50;;;22.80;43.10;;;;;;4836501;29;89955;-70
2022/05/31 00:10:28;;;;;;;3.67;2.60;;;22.80;43.10;;;;;;4828495;29;89259;-70
2022/05/31 00:12:56;;;;;;;5.33;2.13;;;22.80;43.20;;;;;;4846827;29;88416;-70
2022/05/31 00:15:24;;;;;;;3.13;2.23;;;22.70;43.10;;;;;;4846312;29;88673;-70
2022/05/31 00:17:52;;;;;;;6.30;2.10;;;22.80;43.20;;;;;;4836343;29;90693;-70
2022/05/31 00:20:22;;;;;;;2.50;1.97;;;22.70;43.10;;;;;;4826697;29;91217;-70
2022/05/31 00:22:50;;;;;;;3.57;1.80;;;22.70;43.10;;;;;;4846516;29;89370;-70
2022/05/31 00:25:18;;;;;;;2.40;1.53;;;22.70;43.20;;;;;;4846038;29;88629;-70
2022/05/31 00:27:47;;;;;;;6.97;1.80;;;22.70;43.20;;;;;;4843168;29;92932;-70
2022/05/31 00:30:16;;;;;;;3.87;1.80;;;22.70;43.20;;;;;;4838048;29;89484;-71
2022/05/31 00:32:45;;;;;;;2.37;1.70;;;22.70;43.20;;;;;;4839460;29;89270;-71
2022/05/31 00:35:16;;;;;;;2.37;1.33;;;22.70;43.20;;;;;;4828465;29;88684;-69
2022/05/31 00:37:45;;;;;;;4.27;1.93;;;22.70;43.30;;;;;;4840223;29;90483;-70
2022/05/31 00:40:14;;;;;;;2.33;1.63;;;22.70;43.30;;;;;;4837189;29;90106;-71
2022/05/31 00:42:53;;;;;;;1.90;1.50;;;22.70;43.30;;;;;;4845186;29;92301;-71
2022/05/31 00:45:22;;;;;;;2.77;1.87;;;22.70;43.30;;;;;;4846303;29;88462;-71
2022/05/31 00:47:50;;;;;;;5.77;1.80;;;22.70;43.30;;;;;;4835744;29;90436;-71
2022/05/31 00:50:23;;;;;;;3.07;1.30;;;22.70;43.30;;;;;;4845005;29;89009;-70
2022/05/31 00:52:55;;;;;;;3.07;1.60;;;22.70;43.40;;;;;;4842972;29;88765;-71
2022/05/31 00:55:26;;;;;;;3.93;1.80;;;22.70;44.00;;;;;;4844680;29;88602;-70
2022/05/31 00:57:55;;;;;;;3.93;1.13;;;22.60;43.30;;;;;;4834967;29;91614;-70
2022/05/31 01:00:26;;;;;;;2.80;1.37;;;22.60;43.30;;;;;;4843919;29;89945;-71
2022/05/31 01:02:54;;;;;;;5.73;1.67;;;22.70;43.40;;;;;;4846510;29;90723;-71
2022/05/31 01:05:24;;;;;;;3.00;1.27;;;22.60;43.30;;;;;;4846390;29;88439;-71
2022/05/31 01:07:53;;;;;;;2.50;1.33;;;22.60;43.30;;;;;;4845500;29;92316;-71
2022/05/31 01:10:21;;;;;;;2.20;1.33;;;22.60;43.30;;;;;;4844706;29;90231;-71
2022/05/31 01:12:50;;;;;;;2.50;1.20;;;22.60;43.30;;;;;;4844809;29;89979;-71
2022/05/31 01:15:19;;;;;;;1.33;0.97;;;22.60;43.30;;;;;;4842720;29;88614;-71
2022/05/31 01:17:47;;;;;;;1.53;1.00;;;22.60;43.30;;;;;;4827790;29;89540;-70
2022/05/31 01:20:17;;;;;;;2.23;1.37;;;22.60;43.30;;;;;;4843563;29;88801;-70
2022/05/31 01:22:46;;;;;;;1.53;1.30;;;22.60;43.40;;;;;;4845673;29;88638;-70
2022/05/31 01:25:27;;;;;;;4.40;1.20;;;22.60;43.40;;;;;;4843480;29;88642;-71
2022/05/31 01:28:01;;;;;;;3.37;1.60;;;22.50;43.30;;;;;;4826832;29;94380;-70
2022/05/31 01:30:30;;;;;;;1.43;0.87;;;22.50;43.30;;;;;;4845000;29;90216;-70
2022/05/31 01:33:04;;;;;;;1.67;1.30;;;22.50;43.30;;;;;;4845818;29;88359;-71
2022/05/31 01:35:34;;;;;;;2.53;1.20;;;22.50;43.40;;;;;;4846270;29;88448;-71
2022/05/31 01:38:04;;;;;;;2.80;1.20;;;22.50;44.00;;;;;;4845274;29;90678;-71
2022/05/31 01:40:36;;;;;;;1.30;0.80;;;22.50;43.40;;;;;;4862727;29;89039;-71
2022/05/31 01:43:04;;;;;;;3.70;1.37;;;22.50;43.40;;;;;;4863109;29;88806;-71
2022/05/31 01:45:34;;;;;;;1.80;0.90;;;22.50;43.40;;;;;;4860759;29;88555;-70
2022/05/31 01:48:04;;;;;;;1.00;0.90;;;22.50;43.40;;;;;;4862836;29;90664;-71
2022/05/31 01:50:33;;;;;;;1.50;1.03;;;22.50;43.40;;;;;;4863184;29;90236;-71
2022/05/31 01:53:01;;;;;;;2.40;0.97;;;22.50;43.50;;;;;;4863140;29;88912;-71
2022/05/31 01:55:29;;;;;;;2.63;0.90;;;22.50;43.40;;;;;;4855711;29;89056;-71
2022/05/31 01:57:59;;;;;;;0.70;0.70;;;22.50;43.40;;;;;;4864009;29;92688;-70
2022/05/31 02:00:27;;;;;;;1.10;0.90;;;22.50;43.40;;;;;;4863105;29;92913;-71
2022/05/31 02:02:57;;;;;;;5.27;1.53;;;22.50;43.40;;;;;;4862259;29;89617;-71
2022/05/31 02:05:25;;;;;;;0.80;0.80;;;22.50;43.50;;;;;;4859715;29;88508;-71
2022/05/31 02:07:55;;;;;;;1.93;1.03;;;22.50;43.40;;;;;;4867030;29;89880;-71
2022/05/31 02:10:24;;;;;;;1.10;1.00;;;22.50;43.40;;;;;;4854853;29;92139;-70
2022/05/31 02:12:52;;;;;;;1.40;0.77;;;22.50;43.40;;;;;;4853476;29;89504;-71
2022/05/31 02:15:20;;;;;;;2.87;1.33;;;22.50;43.40;;;;;;4857866;29;88625;-71
2022/05/31 02:17:48;;;;;;;1.30;1.07;;;22.40;43.40;;;;;;4848604;29;90904;-71
2022/05/31 02:20:16;;;;;;;2.90;1.10;;;22.50;43.50;;;;;;4849369;29;93205;-71
2022/05/31 02:22:44;;;;;;;1.57;1.00;;;22.40;43.40;;;;;;4848187;29;88308;-70
2022/05/31 02:25:13;;;;;;;2.13;1.20;;;22.40;43.40;;;;;;4854644;29;88503;-71
2022/05/31 02:27:41;;;;;;;1.33;1.00;;;22.40;44.10;;;;;;4866942;29;93815;-71
2022/05/31 02:30:10;;;;;;;1.43;0.80;;;22.40;43.40;;;;;;4865927;29;89768;-70
2022/05/31 02:32:38;;;;;;;1.67;1.00;;;22.40;43.50;;;;;;4854542;29;88992;-70
2022/05/31 02:35:08;;;;;;;3.23;1.20;;;22.40;43.50;;;;;;4856396;29;88656;-71
2022/05/31 02:37:36;;;;;;;1.03;0.90;;;22.40;43.50;;;;;;4866666;29;90603;-70
2022/05/31 02:40:05;;;;;;;0.90;0.90;;;22.30;43.40;;;;;;4865381;29;89088;-71
2022/05/31 02:42:36;;;;;;;1.50;1.10;;;22.30;43.40;;;;;;4864876;29;88987;-70
2022/05/31 02:45:10;;;;;;;1.33;0.77;;;22.30;43.40;;;;;;4853061;29;88939;-71
2022/05/31 02:47:39;;;;;;;1.10;0.97;;;22.30;43.50;;;;;;4850230;29;90762;-71
2022/05/31 02:50:08;;;;;;;1.97;1.07;;;22.30;43.50;;;;;;4849703;29;90114;-70
2022/05/31 02:52:36;;;;;;;5.03;2.97;;;22.30;43.50;;;;;;4860510;29;89795;-71
2022/05/31 02:55:04;;;;;;;5.13;2.53;;;22.30;43.50;;;;;;4858372;29;89804;-71
2022/05/31 02:57:32;;;;;;;4.00;2.23;;;22.30;43.50;;;;;;4864612;29;90191;-71
2022/05/31 03:00:01;;;;;;;6.70;2.70;;;22.30;43.50;;;;;;4859240;29;90036;-71
2022/05/31 03:02:29;;;;;;;5.27;2.17;;;22.30;43.50;;;;;;4864265;29;88932;-70
2022/05/31 03:04:57;;;;;;;7.73;3.03;;;22.30;43.50;;;;;;4861846;29;88722;-70
2022/05/31 03:07:25;;;;;;;6.03;2.30;;;22.30;43.60;;;;;;4847094;29;89931;-70
2022/05/31 03:09:53;;;;;;;2.87;2.57;;;22.30;43.50;;;;;;4851203;29;93014;-71
2022/05/31 03:12:21;;;;;;;5.90;3.13;;;22.30;43.50;;;;;;4866280;29;90516;-70
2022/05/31 03:14:52;;;;;;;4.53;2.57;;;22.30;43.50;;;;;;4854772;29;88587;-70
2022/05/31 03:17:27;;;;;;;4.10;2.87;;;22.30;43.60;;;;;;4861761;29;94028;-71
2022/05/31 03:19:57;;;;;;;9.10;4.30;;;22.30;43.60;;;;;;4861308;29;89050;-71
2022/05/31 03:22:26;;;;;;;6.60;3.53;;;22.30;43.60;;;;;;4847638;29;91442;-70
2022/05/31 03:24:57;;;;;;;6.23;3.30;;;22.30;43.60;;;;;;4860931;29;88562;-70
2022/05/31 03:27:25;;;;;;;7.27;4.17;;;22.30;43.60;;;;;;4865585;29;89393;-71
2022/05/31 03:29:53;;;;;;;6.53;4.47;;;22.30;43.50;;;;;;4861559;29;88600;-69
2022/05/31 03:32:22;;;;;;;7.00;4.67;;;22.30;43.60;;;;;;4854381;29;89104;-70
2022/05/31 03:34:50;;;;;;;8.83;5.03;;;22.20;43.50;;;;;;4861534;29;88465;-70
2022/05/31 03:37:19;;;;;;;9.77;4.33;;;22.30;43.60;;;;;;4856458;29;93332;-71
2022/05/31 03:39:47;;;;;;;8.70;4.10;;;22.20;43.50;;;;;;4847907;29;90199;-71
2022/05/31 03:42:15;;;;;;;11.27;5.07;;;22.20;43.50;;;;;;4853895;29;88772;-70
2022/05/31 03:44:42;;;;;;;8.30;4.43;;;22.20;43.50;;;;;;4863671;29;88486;-70
2022/05/31 03:47:10;;;;;;;6.97;4.23;;;22.20;43.60;;;;;;4865394;29;91043;-71
2022/05/31 03:49:40;;;;;;;7.13;4.80;;;22.20;43.50;;;;;;4864001;29;89442;-70
2022/05/31 03:52:08;;;;;;;10.13;5.30;;;22.20;43.60;;;;;;4852515;29;88809;-71
2022/05/31 03:54:36;;;;;;;10.10;5.37;;;22.30;43.60;;;;;;4866004;29;88416;-71
2022/05/31 03:57:05;;;;;;;10.33;5.60;;;22.20;43.90;;;;;;4864776;29;91428;-71
2022/05/31 03:59:36;;;;;;;10.97;5.73;;;22.20;43.60;;;;;;4863633;29;90095;-71
2022/05/31 04:02:04;;;;;;;9.53;5.53;;;22.20;43.60;;;;;;4850077;29;88872;-71
2022/05/31 04:04:33;;;;;;;7.23;5.17;;;22.20;43.50;;;;;;4847046;29;88409;-71
2022/05/31 04:07:03;;;;;;;11.00;6.13;;;22.20;43.60;;;;;;4846945;29;90268;-70
2022/05/31 04:09:31;;;;;;;9.63;5.33;;;22.20;43.60;;;;;;4850208;29;90484;-71
2022/05/31 04:11:59;;;;;;;8.67;5.03;;;22.20;43.60;;;;;;4848398;29;89304;-70
2022/05/31 04:14:27;;;;;;;7.40;5.27;;;22.20;43.50;;;;;;4849669;29;88574;-70
2022/05/31 04:16:55;;;;;;;7.40;5.03;;;22.20;43.60;;;;;;4865307;29;89011;-70
2022/05/31 04:19:24;;;;;;;6.17;5.13;;;22.20;43.60;;;;;;4863139;29;93691;-71
2022/05/31 04:21:52;;;;;;;7.03;5.03;;;22.20;43.60;;;;;;4861066;29;88934;-70
2022/05/31 04:24:22;;;;;;;8.33;5.93;;;22.20;43.60;;;;;;4865378;29;89444;-70
2022/05/31 04:26:50;;;;;;;11.63;6.13;;;22.20;43.60;;;;;;4865186;29;90227;-70
2022/05/31 04:29:18;;;;;;;7.60;4.90;;;22.20;43.60;;;;;;4863373;29;92472;-71
2022/05/31 04:31:46;;;;;;;7.77;4.93;;;22.20;43.60;;;;;;4847810;29;93494;-70
2022/05/31 04:34:14;;;;;;;10.57;5.20;;;22.20;43.60;;;;;;4864651;29;88686;-70
2022/05/31 04:36:42;;;;;;;8.93;5.73;;;22.20;43.60;;;;;;4865081;29;90086;-71
2022/05/31 04:39:10;;;;;;;8.03;5.23;;;22.20;43.60;;;;;;4861909;29;90847;-70
2022/05/31 04:41:39;;;;;;;9.90;5.57;;;22.20;43.60;;;;;;4861361;29;88476;-71
2022/05/31 04:44:07;;;;;;;7.93;5.10;;;22.20;43.60;;;;;;4863918;29;88626;-71
2022/05/31 04:46:35;;;;;;;8.30;4.67;;;22.20;43.60;;;;;;4846317;29;90858;-71
2022/05/31 04:49:04;;;;;;;5.87;4.27;;;22.20;43.50;;;;;;4848556;29;88665;-71
2022/05/31 04:51:34;;;;;;;6.17;4.63;;;22.20;43.50;;;;;;4850074;29;88623;-71
2022/05/31 04:54:02;;;;;;;9.53;4.70;;;22.20;43.50;;;;;;4861810;29;88427;-71
2022/05/31 04:56:30;;;;;;;6.13;4.33;;;22.20;43.50;;;;;;4864869;29;90680;-70
2022/05/31 04:59:01;;;;;;;7.00;4.80;;;22.20;43.50;;;;;;4862550;29;89347;-69
2022/05/31 05:01:29;;;;;;;5.73;4.17;;;22.20;43.50;;;;;;4864156;29;92357;-71
2022/05/31 05:03:57;;;;;;;6.23;4.47;;;22.20;43.50;;;;;;4850232;29;88675;-72
2022/05/31 05:06:31;;;;;;;5.93;3.63;;;22.20;43.50;;;;;;4846557;29;89929;-71
2022/05/31 05:08:59;;;;;;;7.23;4.40;;;22.20;43.50;;;;;;4847925;29;90176;-71
2022/05/31 05:11:27;;;;;;;4.73;3.23;;;22.20;43.50;;;;;;4852052;29;89238;-71
2022/05/31 05:13:56;;;;;;;5.30;3.70;;;22.20;43.50;;;;;;4859373;29;88542;-71
2022/05/31 05:16:25;;;;;;;7.43;4.03;;;22.20;43.50;;;;;;4845800;29;90586;-71
2022/05/31 05:18:55;;;;;;;7.13;4.13;;;22.20;43.50;;;;;;4846534;29;89946;-70
2022/05/31 05:21:23;;;;;;;8.43;3.90;;;22.20;43.50;;;;;;4856545;29;89286;-70
2022/05/31 05:23:50;;;;;;;5.57;3.47;;;22.20;43.50;;;;;;4864621;29;88507;-70
2022/05/31 05:26:18;;;;;;;4.40;3.67;;;22.20;43.50;;;;;;4864319;29;90089;-70
2022/05/31 05:31:35;;;;;;;4.93;3.17;;;22.20;43.50;;;;;;4850854;29;88958;-70
2022/05/31 05:34:04;;;;;;;5.57;3.47;;;22.20;43.50;;;;;;4860214;29;88556;-71
2022/05/31 05:36:32;;;;;;;5.70;3.47;;;22.20;43.50;;;;;;4864583;29;90623;-71
2022/05/31 05:39:00;;;;;;;4.13;3.00;;;22.20;43.50;;;;;;4862330;29;88847;-70
2022/05/31 05:41:29;;;;;;;4.53;2.93;;;22.20;43.50;;;;;;4851692;29;88432;-71
2022/05/31 05:43:57;;;;;;;6.27;3.20;;;22.20;44.10;;;;;;4858132;29;88702;-70
2022/05/31 05:46:27;;;;;;;5.50;3.63;;;22.20;44.10;;;;;;4863570;29;89578;-71
2022/05/31 05:48:59;;;;;;;4.50;2.67;;;22.20;43.40;;;;;;4863954;29;90740;-70
2022/05/31 05:51:28;;;;;;;3.80;2.67;;;22.20;43.40;;;;;;4862448;29;88957;-71
2022/05/31 05:53:56;;;;;;;3.57;2.10;;;22.20;43.40;;;;;;4857140;29;88543;-70
2022/05/31 05:56:24;;;;;;;5.90;2.87;;;22.20;43.40;;;;;;4863426;29;90557;-71
2022/05/31 05:58:54;;;;;;;2.43;2.10;;;22.20;43.40;;;;;;4863081;29;90205;-71
2022/05/31 06:01:23;;;;;;;2.90;2.40;;;22.30;43.50;;;;;;4861351;29;88495;-70
2022/05/31 06:03:53;;;;;;;2.93;2.47;;;22.30;43.50;;;;;;4860674;29;88698;-70
2022/05/31 06:06:23;;;;;;;4.30;2.90;;;22.30;43.50;;;;;;4864193;29;89437;-69
2022/05/31 06:08:53;;;;;;;3.97;2.50;;;22.30;43.50;;;;;;4861195;29;91488;-69
2022/05/31 06:11:22;;;;;;;3.20;2.33;;;22.30;43.60;;;;;;4851715;29;92884;-69
2022/05/31 06:13:52;;;;;;;2.67;1.93;;;22.30;43.70;;;;;;4856616;29;88629;-69
2022/05/31 06:16:20;;;;;;;5.27;2.50;;;22.40;43.80;;;;;;4864038;29;90315;-70
2022/05/31 06:18:51;;;;;;;5.60;2.77;;;22.40;43.80;;;;;;4862537;29;90209;-70
2022/05/31 06:21:19;;;;;;;5.07;2.57;;;22.50;44.00;;;;;;4861749;29;88622;-69
2022/05/31 06:23:49;;;;;;;2.77;2.10;;;22.50;44.10;;;;;;4861516;29;88773;-69
2022/05/31 06:26:17;;;;;;;2.80;2.10;;;22.50;44.20;;;;;;4859912;29;94229;-68
2022/05/31 06:28:46;;;;;;;3.97;2.00;;;22.50;44.30;;;;;;4862291;29;91837;-68
2022/05/31 06:31:14;;;;;;;2.53;1.77;;;22.50;44.40;;;;;;4861580;29;90215;-69
2022/05/31 06:33:42;;;;;;;3.07;2.27;;;22.50;44.50;;;;;;4861170;29;88359;-69
2022/05/31 06:36:10;;;;;;;3.27;2.10;;;22.60;44.70;;;;;;4861762;29;91885;-68
2022/05/31 06:38:38;;;;;;;4.40;2.57;;;22.60;44.70;;;;;;4859419;29;89366;-69
2022/05/31 06:41:08;;;;;;;5.30;1.90;;;22.60;44.70;;;;;;4856991;29;88969;-69
2022/05/31 06:43:36;;;;;;;4.50;2.03;;;22.70;44.80;;;;;;4847445;29;88654;-69
2022/05/31 06:46:05;;;;;;;2.57;2.10;;;22.70;44.90;;;;;;4843578;29;93826;-69
2022/05/31 06:48:33;;;;;;;5.00;2.43;;;22.70;44.90;;;;;;4854351;29;88927;-69
2022/05/31 06:51:06;;;;;;;2.93;2.07;;;22.80;45.00;;;;;;4855730;29;88829;-69
2022/05/31 06:59:06;;;;;;;2.10;1.73;;;22.80;45.00;;;;;;4865864;29;88560;-68
2022/05/31 07:01:37;;;;;;;3.40;1.87;;;22.80;45.00;;;;;;4851060;29;89796;-69
2022/05/31 07:04:05;;;;;;;1.93;1.47;;;22.80;45.00;;;;;;4847609;29;88629;-69
2022/05/31 07:06:34;;;;;;;2.17;1.83;;;22.80;45.10;;;;;;4857080;29;89647;-70
2022/05/31 07:09:02;;;;;;;2.73;1.70;;;22.80;45.20;;;;;;4861469;29;91427;-69
2022/05/31 07:11:31;;;;;;;3.03;2.33;;;22.80;45.20;;;;;;4865439;29;91107;-68
2022/05/31 07:14:00;;;;;;;1.90;1.80;;;22.80;45.30;;;;;;4865869;29;88534;-68
2022/05/31 07:16:28;;;;;;;5.10;2.00;;;22.80;45.30;;;;;;4865668;29;90748;-69
2022/05/31 07:18:56;;;;;;;1.67;1.20;;;22.90;45.40;;;;;;4862485;29;90043;-69
2022/05/31 07:21:25;;;;;;;2.40;1.70;;;22.90;45.40;;;;;;4862118;29;89264;-68
2022/05/31 07:23:54;;;;;;;3.73;1.70;;;22.90;45.40;;;;;;4847561;29;88427;-68
2022/05/31 07:26:22;;;;;;;6.83;1.73;;;22.90;45.40;;;;;;4860494;29;93821;-68
2022/05/31 07:29:09;;;;;;;4.23;1.63;;;23.00;45.50;;;;;;4865421;29;88685;-68
2022/05/31 07:31:37;;;;;;;2.70;1.27;;;23.00;45.50;;;;;;4856863;29;89621;-69
2022/05/31 07:34:25;;;;;;;2.30;1.73;;;23.00;45.50;;;;;;4864195;29;88678;-69
2022/05/31 07:36:54;;;;;;;2.87;1.13;;;23.00;45.50;;;;;;4865030;29;89509;-68
2022/05/31 07:39:22;;;;;;;3.67;1.43;;;23.00;45.50;;;;;;4865277;29;90139;-69
2022/05/31 07:41:52;;;;;;;2.47;1.60;;;23.00;45.50;;;;;;4865670;29;89379;-69
2022/05/31 07:44:21;;;;;;;2.50;1.37;;;23.00;45.50;;;;;;4864859;29;88617;-69
2022/05/31 07:46:50;;;;;;;1.30;1.20;;;23.00;45.50;;;;;;4862250;29;91494;-69
2022/05/31 07:49:18;;;;;;;4.57;1.27;;;23.00;45.40;;;;;;4862791;29;89263;-70
2022/05/31 07:51:46;;;;;;;3.60;1.43;;;23.00;45.30;;;;;;4863832;29;89829;-69
2022/05/31 07:54:14;;;;;;;2.07;1.27;;;23.00;45.30;;;;;;4864908;29;88507;-70
2022/05/31 07:56:42;;;;;;;2.67;1.13;;;23.00;45.20;;;;;;4863781;29;93584;-69
2022/05/31 07:59:11;;;;;;;2.07;1.03;;;23.00;45.10;;;;;;4865132;29;88747;-70
2022/05/31 08:01:40;;;;;;;3.83;1.20;;;23.00;45.10;;;;;;4860012;29;88519;-69
2022/05/31 08:04:08;;;;;;;2.67;1.43;;;23.00;45.00;;;;;;4846398;29;88673;-69
2022/05/31 08:06:36;;;;;;;2.10;0.97;;;23.00;45.00;;;;;;4856859;29;92316;-69
2022/05/31 08:09:05;;;;;;;1.63;0.90;;;23.00;44.90;;;;;;4864720;29;90216;-69
2022/05/31 08:11:33;;;;;;;2.00;1.10;;;23.00;44.90;;;;;;4863935;29;88372;-70
2022/05/31 08:14:03;;;;;;;3.63;1.30;;;23.00;44.70;;;;;;4864970;29;88562;-69
2022/05/31 08:16:32;;;;;;;1.47;1.00;;;23.00;44.70;;;;;;4863693;29;90993;-69
2022/05/31 08:19:01;;;;;;;3.17;0.90;;;23.00;44.60;;;;;;4863173;29;91788;-70
2022/05/31 08:21:30;;;;;;;1.03;0.83;;;23.00;44.50;;;;;;4861179;29;88992;-70
2022/05/31 08:24:01;;;;;;;1.53;1.03;;;23.00;44.40;;;;;;4860192;29;88797;-69
2022/05/31 08:26:47;;;;;;;7.40;1.30;;;23.00;44.40;;;;;;4865308;29;90844;-70
2022/05/31 08:29:16;;;;;;;5.10;1.20;;;23.00;44.30;;;;;;4864453;29;90083;-70
2022/05/31 08:31:44;;;;;;;1.67;0.93;;;23.00;44.30;;;;;;4859978;29;88571;-70
2022/05/31 08:34:14;;;;;;;1.27;0.70;;;23.00;44.20;;;;;;4862249;29;88578;-69
2022/05/31 08:36:42;;;;;;;1.70;0.80;;;23.00;44.20;;;;;;4865083;29;93801;-69
2022/05/31 08:39:10;;;;;;;3.90;1.20;;;23.00;44.10;;;;;;4863779;29;90079;-70
2022/05/31 08:41:42;;;;;;;2.13;1.40;;;23.00;44.10;;;;;;4862064;29;90064;-69
2022/05/31 08:44:17;;;;;;;0.63;0.63;;;23.00;44.00;;;;;;4865156;29;88646;-69
2022/05/31 08:47:00;;;;;;;0.83;0.70;;;23.00;44.10;;;;;;4864384;29;91022;-69
2022/05/31 08:52:26;;;;;;;3.07;1.30;;;23.00;44.00;;;;;;4862732;29;89879;-70
2022/05/31 08:57:45;;;;;;;2.83;0.90;;;23.00;43.90;;;;;;4864249;29;90774;-73
2022/05/31 09:00:16;;;;;;;1.30;1.20;;;23.00;43.80;;;;;;4862952;29;90612;-70
2022/05/31 09:02:47;;;;;;;1.67;0.70;;;23.00;43.80;;;;;;4845470;29;88681;-70
2022/05/31 09:05:22;;;;;;;2.87;0.90;;;23.10;43.80;;;;;;4843961;29;88667;-70
2022/05/31 09:07:52;;;;;;;2.67;0.70;;;23.10;43.80;;;;;;4845676;29;91108;-70
2022/05/31 09:10:27;;;;;;;2.93;0.87;;;23.10;43.70;;;;;;4845776;29;89193;-70
2022/05/31 09:12:58;;;;;;;0.87;0.70;;;23.10;43.70;;;;;;4863867;29;88707;-70
2022/05/31 09:15:32;;;;;;;2.97;0.80;;;23.10;43.60;;;;;;4864375;29;88548;-70
2022/05/31 09:18:04;;;;;;;1.00;0.67;;;23.10;43.60;;;;;;4863654;29;90734;-70
2022/05/31 09:20:36;;;;;;;1.83;0.60;;;23.20;43.70;;;;;;4864367;29;89469;-70
2022/05/31 09:23:04;;;;;;;1.73;0.67;;;23.20;43.60;;;;;;4865108;29;88376;-70
2022/05/31 09:25:35;;;;;;;0.87;0.83;;;23.20;43.50;;;;;;4864485;29;88622;-70
2022/05/31 09:28:05;;;;;;;3.40;0.70;;;23.20;43.50;;;;;;4863316;29;90876;-70
2022/05/31 09:30:37;;;;;;;1.80;1.27;;;23.20;43.50;;;;;;4862471;29;90092;-70
2022/05/31 09:33:09;;;;;;;1.70;0.90;;;23.20;43.40;;;;;;4845598;29;90140;-70
2022/05/31 09:35:47;;;;;;;1.37;0.73;;;23.20;43.30;;;;;;4849261;29;88475;-70
2022/05/31 09:38:34;;;;;;;3.17;1.20;;;23.20;43.30;;;;;;4863865;29;89715;-71
2022/05/31 09:41:06;;;;;;;1.87;0.80;;;23.20;43.80;;;;;;4864511;29;88844;-70
2022/05/31 09:43:37;;;;;;;0.53;0.47;;;23.20;43.00;;;;;;4864064;29;88420;-70
2022/05/31 09:46:08;;;;;;;1.53;0.97;;;23.20;42.90;;;;;;4863860;29;88546;-70
2022/05/31 09:48:42;;;;;;;3.73;0.70;;;23.20;42.90;;;;;;4863578;29;89756;-70
2022/05/31 09:51:17;;;;;;;1.40;0.87;;;23.20;42.80;;;;;;4854946;29;89120;-69
2022/05/31 09:59:23;;;;;;;1.60;1.27;;;23.30;42.60;;;;;;4851107;29;93560;-70
2022/05/31 10:01:51;;;;;;;1.67;0.80;;;23.30;42.60;;;;;;4860765;29;90078;-70
2022/05/31 10:04:24;;;;;;;0.87;0.67;;;23.30;42.60;;;;;;4863518;29;88512;-70
2022/05/31 10:06:59;;;;;;;1.57;0.77;;;23.30;42.60;;;;;;4858213;29;88598;-70
2022/05/31 10:09:34;;;;;;;2.03;0.77;;;23.30;42.60;;;;;;4857680;29;90577;-70
2022/05/31 10:12:16;;;;;;;0.80;0.70;;;23.30;42.60;;;;;;4864089;29;89675;-70
2022/05/31 10:14:45;;;;;;;0.77;0.73;;;23.30;42.50;;;;;;4862866;29;90481;-70
2022/05/31 10:17:32;;;;;;;1.13;1.03;;;23.30;42.50;;;;;;4862858;29;88527;-70
2022/05/31 10:20:16;;;;;;;1.30;0.93;;;23.30;42.50;;;;;;4863409;29;92523;-70
2022/05/31 10:22:57;;;;;;;1.27;0.70;;;23.20;42.40;;;;;;4863558;29;89092;-70
2022/05/31 10:25:27;;;;;;;0.53;0.53;;;23.30;42.50;;;;;;4863804;29;89932;-70
2022/05/31 10:27:58;;;;;;;1.87;0.50;;;23.30;42.50;;;;;;4855762;29;88424;-70
2022/05/31 10:30:26;;;;;;;1.10;0.60;;;23.30;42.50;;;;;;4847742;29;93412;-71
2022/05/31 10:32:55;;;;;;;1.80;0.77;;;23.30;42.40;;;;;;4848360;29;88428;-70
2022/05/31 10:35:25;;;;;;;1.13;0.67;;;23.30;42.50;;;;;;4864880;29;88556;-71
2022/05/31 10:37:58;;;;;;;0.83;0.80;;;23.30;42.40;;;;;;4856197;29;88486;-70
2022/05/31 10:40:45;;;;;;;0.70;0.60;;;23.30;42.40;;;;;;4847793;29;92526;-70
2022/05/31 10:43:26;;;;;;;0.77;0.77;;;23.30;42.40;;;;;;4856896;29;91148;-69
2022/05/31 10:45:56;;;;;;;1.37;1.10;;;23.20;42.30;;;;;;4866483;29;89729;-69
2022/05/31 10:48:24;;;;;;;4.67;0.90;;;23.30;42.40;;;;;;4852134;29;88503;-69
2022/05/31 10:50:55;;;;;;;0.70;0.70;;;23.30;42.40;;;;;;4847397;29;90566;-69
2022/05/31 10:53:35;;;;;;;0.83;0.70;;;23.30;42.40;;;;;;4864136;29;91540;-69
2022/05/31 10:56:10;;;;;;;0.50;0.50;;;23.40;42.40;;;;;;4866516;29;91259;-69
2022/05/31 10:58:54;;;;;;;2.00;0.70;;;23.40;42.40;;;;;;4850842;29;88607;-69
2022/05/31 11:01:34;;;;;;;0.77;0.67;;;23.40;42.30;;;;;;4847058;29;89556;-69
2022/05/31 11:04:09;;;;;;;1.73;0.70;;;23.50;42.40;;;;;;4846746;29;88944;-70
2022/05/31 11:06:42;;;;;;;0.63;0.60;;;23.50;42.30;;;;;;4864432;29;90249;-69
2022/05/31 11:12:12;;;;;;;1.37;0.50;;;23.50;42.40;;;;;;4866359;29;89438;-69
2022/05/31 11:15:04;;;;;;;1.20;0.70;;;23.50;43.00;;;;;;4865836;29;93369;-69
2022/05/31 11:17:39;;;;;;;0.83;0.50;;;23.50;42.40;;;;;;4853889;29;89770;-69
2022/05/31 11:20:10;;;;;;;2.50;0.90;;;23.50;42.30;;;;;;4854351;29;88677;-69
2022/05/31 11:22:48;;;;;;;0.80;0.57;;;23.50;42.30;;;;;;4865510;29;93857;-69
2022/05/31 11:25:27;;;;;;;0.73;0.70;;;23.50;42.30;;;;;;4865717;29;90175;-70
2022/05/31 11:28:02;;;;;;;2.47;0.70;;;23.50;42.30;;;;;;4851669;29;88754;-70
2022/05/31 11:30:34;;;;;;;1.43;0.80;;;23.50;42.30;;;;;;4865446;29;88501;-69
2022/05/31 11:33:26;;;;;;;4.57;1.00;;;23.60;42.30;;;;;;4866212;29;92481;-69
2022/05/31 11:36:01;;;;;;;1.30;0.70;;;23.50;42.30;;;;;;4866145;29;90443;-70
2022/05/31 11:38:32;;;;;;;0.70;0.70;;;23.60;42.40;;;;;;4858289;29;88611;-69
2022/05/31 11:41:07;;;;;;;0.90;0.70;;;23.60;42.40;;;;;;4865841;29;88400;-70
2022/05/31 11:43:51;;;;;;;1.50;0.80;;;23.60;42.30;;;;;;4864801;29;90891;-70
2022/05/31 11:46:24;;;;;;;0.80;0.70;;;23.60;42.30;;;;;;4865185;29;89526;-70
2022/05/31 11:48:57;;;;;;;2.63;0.90;;;23.60;42.20;;;;;;4847347;29;89037;-70
2022/05/31 11:51:46;;;;;;;3.20;1.00;;;23.60;42.20;;;;;;4865334;29;88496;-69
2022/05/31 11:55:25;;;;;;;0.83;0.80;;;23.60;42.20;;;;;;4865124;29;90648;-69
2022/05/31 11:57:51;;;;;;;0.67;0.60;;;23.60;42.10;;;;;;4855052;29;90081;-70
2022/05/31 12:00:19;;;;;;;1.97;0.53;;;23.60;42.10;;;;;;4847161;29;88465;-70
2022/05/31 12:02:50;;;;;;;0.90;0.70;;;23.70;42.10;;;;;;4846286;29;88725;-69
2022/05/31 12:05:21;;;;;;;0.77;0.77;;;23.70;42.10;;;;;;4847256;29;90341;-70
2022/05/31 12:07:51;;;;;;;0.80;0.60;;;23.70;42.10;;;;;;4859489;29;93324;-70
2022/05/31 12:10:22;;;;;;;1.27;0.73;;;23.70;42.00;;;;;;4865791;29;89215;-70
2022/05/31 12:12:52;;;;;;;1.40;0.67;;;23.70;42.00;;;;;;4864288;29;88174;-70
2022/05/31 12:15:23;;;;;;;0.80;0.67;;;23.70;41.90;;;;;;4864759;29;90623;-69
2022/05/31 12:17:53;;;;;;;0.80;0.70;;;23.80;42.00;;;;;;4863887;29;89188;-69
2022/05/31 12:20:23;;;;;;;0.60;0.60;;;23.80;42.00;;;;;;4864164;29;88461;-69
2022/05/31 12:22:57;;;;;;;1.53;0.70;;;23.80;41.90;;;;;;4865286;29;88480;-69
2022/05/31 12:25:27;;;;;;;0.73;0.70;;;23.80;41.90;;;;;;4862235;29;90149;-69
2022/05/31 12:27:58;;;;;;;0.73;0.73;;;23.90;41.90;;;;;;4861441;29;90423;-69
2022/05/31 12:30:27;;;;;;;0.83;0.70;;;23.90;41.80;;;;;;4843979;29;90777;-69
2022/05/31 12:32:55;;;;;;;0.50;0.50;;;23.90;41.80;;;;;;4837878;29;88745;-69
2022/05/31 12:35:55;;;;;;;1.07;0.80;;;23.90;41.80;;;;;;4846224;29;93467;-69
2022/05/31 12:38:23;;;;;;;3.70;0.90;;;23.80;41.70;;;;;;4827654;29;90121;-70
2022/05/31 12:40:52;;;;;;;0.80;0.80;;;23.90;41.70;;;;;;4840221;29;88277;-70
2022/05/31 12:43:47;;;;;;;0.80;0.80;;;23.90;41.80;;;;;;4836510;29;88799;-70
2022/05/31 12:46:37;;;;;;;0.70;0.70;;;23.80;41.70;;;;;;4846043;29;90753;-70
2022/05/31 12:49:11;;;;;;;0.97;0.60;;;23.80;41.70;;;;;;4842377;29;92736;-69
2022/05/31 12:51:39;;;;;;;1.10;0.70;;;23.90;41.70;;;;;;4836222;29;88629;-69
2022/05/31 12:54:11;;;;;;;1.07;0.53;;;23.80;41.60;;;;;;4836625;29;88615;-69
2022/05/31 12:57:07;;;;;;;2.93;0.80;;;23.90;41.70;;;;;;4837540;29;89715;-72
2022/05/31 12:59:56;;;;;;;1.00;0.83;;;23.90;41.70;;;;;;4837432;29;91610;-69
2022/05/31 13:02:43;;;;;;;6.07;0.90;;;23.90;41.60;;;;;;4825830;29;89770;-71
2022/05/31 13:05:37;;;;;;;4.87;0.67;;;23.90;41.60;;;;;;4834096;29;88371;-71
2022/05/31 13:08:20;;;;;;;6.13;0.80;;;23.90;41.60;;;;;;4828463;29;90814;-71
2022/05/31 13:19:37;;;;;;;3.23;1.17;;;24.00;41.60;;;;;;4844699;29;90247;-69
2022/05/31 13:22:12;;;;;;;2.53;0.97;;;24.00;42.30;;;;;;4829545;29;89126;-70
2022/05/31 13:24:47;;;;;;;1.53;0.90;;;24.10;41.70;;;;;;4834482;29;89007;-69
2022/05/31 13:27:19;;;;;;;4.50;0.67;;;24.10;41.80;;;;;;4844623;29;88578;-67
2022/05/31 13:29:47;;;;;;;0.70;0.70;;;24.10;41.70;;;;;;4843821;29;90629;-70
2022/05/31 13:32:17;;;;;;;5.17;0.80;;;24.10;41.70;;;;;;4843810;29;89663;-70
2022/05/31 13:34:49;;;;;;;7.00;1.20;;;24.20;41.70;;;;;;4834288;29;91772;-70
2022/05/31 13:37:19;;;;;;;3.47;0.77;;;24.20;41.60;;;;;;4843499;29;88423;-70